sensor_id;sensor_type;location;lat;lon;timestamp;P1;durP1;ratioP1;P2;durP2;ratioP2
82811;SDS011;72567;55.696;37.960;2024-03-25T00:01:25;14.10;;;7.80;;
82811;SDS011;72567;55.696;37.960;2024-03-25T00:04:25;14.13;;;9.90;;
82811;SDS011;72567;55.696;37.960;2024-03-25T00:07:26;9.38;;;5.47;;
82811;SDS011;72567;55.696;37.960;2024-03-25T00:10:26;6.70;;;3.05;;
82811;SDS011;72567;55.696;37.960;2024-03-25T00:13:27;7.13;;;3.20;;
82811;SDS011;72567;55.696;37.960;2024-03-25T00:16:28;5.25;;;2.85;;
82811;SDS011;72567;55.696;37.960;2024-03-25T00:19:28;5.00;;;2.20;;
82811;SDS011;72567;55.696;37.960;2024-03-25T00:22:30;5.70;;;2.33;;
82811;SDS011;72567;55.696;37.960;2024-03-25T00:25:31;4.20;;;2.38;;
82811;SDS011;72567;55.696;37.960;2024-03-25T00:28:32;3.88;;;1.90;;
82811;SDS011;72567;55.696;37.960;2024-03-25T00:31:32;3.13;;;1.65;;
82811;SDS011;72567;55.696;37.960;2024-03-25T00:34:33;2.50;;;1.20;;
82811;SDS011;72567;55.696;37.960;2024-03-25T00:37:34;1.52;;;0.80;;
82811;SDS011;72567;55.696;37.960;2024-03-25T00:40:35;1.75;;;0.95;;
82811;SDS011;72567;55.696;37.960;2024-03-25T00:43:35;1.35;;;0.77;;
82811;SDS011;72567;55.696;37.960;2024-03-25T00:46:36;1.00;;;0.60;;
82811;SDS011;72567;55.696;37.960;2024-03-25T00:49:36;1.50;;;0.73;;
82811;SDS011;72567;55.696;37.960;2024-03-25T00:52:37;0.25;;;0.20;;
82811;SDS011;72567;55.696;37.960;2024-03-25T00:55:38;1.05;;;0.70;;
82811;SDS011;72567;55.696;37.960;2024-03-25T00:58:38;0.73;;;0.50;;
82811;SDS011;72567;55.696;37.960;2024-03-25T01:01:39;0.55;;;0.40;;
82811;SDS011;72567;55.696;37.960;2024-03-25T01:04:39;0.77;;;0.60;;
82811;SDS011;72567;55.696;37.960;2024-03-25T01:07:40;1.27;;;0.68;;
82811;SDS011;72567;55.696;37.960;2024-03-25T01:10:41;0.47;;;0.38;;
82811;SDS011;72567;55.696;37.960;2024-03-25T01:13:41;0.20;;;0.20;;
82811;SDS011;72567;55.696;37.960;2024-03-25T01:16:42;0.20;;;0.20;;
82811;SDS011;72567;55.696;37.960;2024-03-25T01:19:43;0.43;;;0.20;;
82811;SDS011;72567;55.696;37.960;2024-03-25T01:22:43;0.30;;;0.30;;
82811;SDS011;72567;55.696;37.960;2024-03-25T01:25:44;0.30;;;0.13;;
82811;SDS011;72567;55.696;37.960;2024-03-25T01:28:44;0.45;;;0.17;;
82811;SDS011;72567;55.696;37.960;2024-03-25T01:31:46;0.13;;;0.13;;
82811;SDS011;72567;55.696;37.960;2024-03-25T01:34:46;0.30;;;0.25;;
82811;SDS011;72567;55.696;37.960;2024-03-25T01:37:47;0.50;;;0.47;;
82811;SDS011;72567;55.696;37.960;2024-03-25T01:40:47;0.50;;;0.30;;
82811;SDS011;72567;55.696;37.960;2024-03-25T01:43:48;0.38;;;0.22;;
82811;SDS011;72567;55.696;37.960;2024-03-25T01:46:49;0.30;;;0.20;;
82811;SDS011;72567;55.696;37.960;2024-03-25T01:49:49;0.63;;;0.38;;
82811;SDS011;72567;55.696;37.960;2024-03-25T01:52:53;0.63;;;0.40;;
82811;SDS011;72567;55.696;37.960;2024-03-25T01:55:54;0.20;;;0.13;;
82811;SDS011;72567;55.696;37.960;2024-03-25T01:58:56;1.85;;;0.38;;
82811;SDS011;72567;55.696;37.960;2024-03-25T02:01:57;0.70;;;0.40;;
82811;SDS011;72567;55.696;37.960;2024-03-25T02:04:57;1.00;;;0.30;;
82811;SDS011;72567;55.696;37.960;2024-03-25T02:07:58;0.38;;;0.20;;
82811;SDS011;72567;55.696;37.960;2024-03-25T02:11:00;0.30;;;0.30;;
82811;SDS011;72567;55.696;37.960;2024-03-25T02:14:00;0.13;;;0.10;;
82811;SDS011;72567;55.696;37.960;2024-03-25T02:17:01;0.30;;;0.30;;
82811;SDS011;72567;55.696;37.960;2024-03-25T02:20:05;1.00;;;0.60;;
82811;SDS011;72567;55.696;37.960;2024-03-25T02:23:08;0.77;;;0.35;;
82811;SDS011;72567;55.696;37.960;2024-03-25T02:26:10;0.20;;;0.20;;
82811;SDS011;72567;55.696;37.960;2024-03-25T02:29:11;0.60;;;0.32;;
82811;SDS011;72567;55.696;37.960;2024-03-25T02:32:11;0.08;;;0.08;;
82811;SDS011;72567;55.696;37.960;2024-03-25T02:35:13;0.47;;;0.40;;
82811;SDS011;72567;55.696;37.960;2024-03-25T02:38:15;0.10;;;0.10;;
82811;SDS011;72567;55.696;37.960;2024-03-25T02:41:18;0.25;;;0.22;;
82811;SDS011;72567;55.696;37.960;2024-03-25T02:44:19;0.52;;;0.30;;
82811;SDS011;72567;55.696;37.960;2024-03-25T02:47:20;0.30;;;0.30;;
82811;SDS011;72567;55.696;37.960;2024-03-25T02:50:21;0.20;;;0.20;;
82811;SDS011;72567;55.696;37.960;2024-03-25T02:53:22;1.45;;;0.32;;
82811;SDS011;72567;55.696;37.960;2024-03-25T02:56:22;0.50;;;0.30;;
82811;SDS011;72567;55.696;37.960;2024-03-25T02:59:23;0.13;;;0.13;;
82811;SDS011;72567;55.696;37.960;2024-03-25T03:02:23;0.28;;;0.20;;
82811;SDS011;72567;55.696;37.960;2024-03-25T03:05:24;0.73;;;0.32;;
82811;SDS011;72567;55.696;37.960;2024-03-25T03:08:24;0.20;;;0.20;;
82811;SDS011;72567;55.696;37.960;2024-03-25T03:11:25;0.43;;;0.30;;
82811;SDS011;72567;55.696;37.960;2024-03-25T03:14:26;0.77;;;0.43;;
82811;SDS011;72567;55.696;37.960;2024-03-25T03:17:26;0.45;;;0.38;;
82811;SDS011;72567;55.696;37.960;2024-03-25T03:20:27;0.43;;;0.25;;
82811;SDS011;72567;55.696;37.960;2024-03-25T03:23:27;1.55;;;0.45;;
82811;SDS011;72567;55.696;37.960;2024-03-25T03:26:28;0.38;;;0.20;;
82811;SDS011;72567;55.696;37.960;2024-03-25T03:29:28;0.35;;;0.32;;
82811;SDS011;72567;55.696;37.960;2024-03-25T03:32:36;0.47;;;0.40;;
82811;SDS011;72567;55.696;37.960;2024-03-25T03:35:37;0.43;;;0.30;;
82811;SDS011;72567;55.696;37.960;2024-03-25T03:38:37;0.50;;;0.45;;
82811;SDS011;72567;55.696;37.960;2024-03-25T03:41:38;0.98;;;0.50;;
82811;SDS011;72567;55.696;37.960;2024-03-25T03:44:39;0.40;;;0.40;;
82811;SDS011;72567;55.696;37.960;2024-03-25T03:47:39;0.73;;;0.45;;
82811;SDS011;72567;55.696;37.960;2024-03-25T03:50:41;1.00;;;0.47;;
82811;SDS011;72567;55.696;37.960;2024-03-25T03:53:42;0.63;;;0.40;;
82811;SDS011;72567;55.696;37.960;2024-03-25T03:56:42;0.82;;;0.60;;
82811;SDS011;72567;55.696;37.960;2024-03-25T03:59:43;0.25;;;0.20;;
82811;SDS011;72567;55.696;37.960;2024-03-25T04:02:44;1.10;;;0.68;;
82811;SDS011;72567;55.696;37.960;2024-03-25T04:05:44;1.35;;;0.60;;
82811;SDS011;72567;55.696;37.960;2024-03-25T04:08:45;2.00;;;0.70;;
82811;SDS011;72567;55.696;37.960;2024-03-25T04:11:46;1.10;;;0.77;;
82811;SDS011;72567;55.696;37.960;2024-03-25T04:14:46;1.13;;;0.47;;
82811;SDS011;72567;55.696;37.960;2024-03-25T04:17:49;1.67;;;0.77;;
82811;SDS011;72567;55.696;37.960;2024-03-25T04:20:49;1.05;;;0.43;;
82811;SDS011;72567;55.696;37.960;2024-03-25T04:23:50;0.80;;;0.52;;
82811;SDS011;72567;55.696;37.960;2024-03-25T04:26:51;1.63;;;0.40;;
82811;SDS011;72567;55.696;37.960;2024-03-25T04:29:52;0.85;;;0.50;;
82811;SDS011;72567;55.696;37.960;2024-03-25T04:32:53;0.77;;;0.65;;
82811;SDS011;72567;55.696;37.960;2024-03-25T04:35:53;1.45;;;0.60;;
82811;SDS011;72567;55.696;37.960;2024-03-25T04:38:55;1.05;;;0.77;;
82811;SDS011;72567;55.696;37.960;2024-03-25T04:41:55;1.52;;;0.90;;
82811;SDS011;72567;55.696;37.960;2024-03-25T04:44:56;1.65;;;0.90;;
82811;SDS011;72567;55.696;37.960;2024-03-25T04:47:57;1.55;;;0.88;;
82811;SDS011;72567;55.696;37.960;2024-03-25T04:50:57;0.95;;;0.50;;
82811;SDS011;72567;55.696;37.960;2024-03-25T04:53:58;0.90;;;0.60;;
82811;SDS011;72567;55.696;37.960;2024-03-25T04:56:59;1.65;;;0.93;;
82811;SDS011;72567;55.696;37.960;2024-03-25T05:00:00;1.20;;;0.68;;
82811;SDS011;72567;55.696;37.960;2024-03-25T05:03:00;1.83;;;0.70;;
82811;SDS011;72567;55.696;37.960;2024-03-25T05:06:01;1.67;;;0.85;;
82811;SDS011;72567;55.696;37.960;2024-03-25T05:09:01;1.55;;;0.90;;
82811;SDS011;72567;55.696;37.960;2024-03-25T05:12:02;1.30;;;0.73;;
82811;SDS011;72567;55.696;37.960;2024-03-25T05:15:03;1.48;;;0.88;;
82811;SDS011;72567;55.696;37.960;2024-03-25T05:18:05;1.80;;;0.88;;
82811;SDS011;72567;55.696;37.960;2024-03-25T05:21:06;1.17;;;0.80;;
82811;SDS011;72567;55.696;37.960;2024-03-25T05:24:06;1.42;;;0.82;;
82811;SDS011;72567;55.696;37.960;2024-03-25T05:27:07;1.63;;;0.80;;
82811;SDS011;72567;55.696;37.960;2024-03-25T05:30:08;2.33;;;0.60;;
82811;SDS011;72567;55.696;37.960;2024-03-25T05:33:08;3.85;;;1.10;;
82811;SDS011;72567;55.696;37.960;2024-03-25T05:36:09;1.40;;;0.85;;
82811;SDS011;72567;55.696;37.960;2024-03-25T05:39:10;1.10;;;0.57;;
82811;SDS011;72567;55.696;37.960;2024-03-25T05:42:10;0.65;;;0.45;;
82811;SDS011;72567;55.696;37.960;2024-03-25T05:45:11;1.90;;;1.10;;
82811;SDS011;72567;55.696;37.960;2024-03-25T05:48:12;1.35;;;0.82;;
82811;SDS011;72567;55.696;37.960;2024-03-25T05:51:13;2.65;;;1.10;;
82811;SDS011;72567;55.696;37.960;2024-03-25T05:54:15;2.08;;;1.10;;
82811;SDS011;72567;55.696;37.960;2024-03-25T05:57:15;5.93;;;3.47;;
82811;SDS011;72567;55.696;37.960;2024-03-25T06:00:16;2.90;;;1.23;;
82811;SDS011;72567;55.696;37.960;2024-03-25T06:03:16;1.83;;;0.93;;
82811;SDS011;72567;55.696;37.960;2024-03-25T06:06:18;2.83;;;1.30;;
82811;SDS011;72567;55.696;37.960;2024-03-25T06:09:19;3.95;;;1.00;;
82811;SDS011;72567;55.696;37.960;2024-03-25T06:12:19;2.80;;;1.10;;
82811;SDS011;72567;55.696;37.960;2024-03-25T06:15:20;1.25;;;0.77;;
82811;SDS011;72567;55.696;37.960;2024-03-25T06:18:21;2.25;;;1.10;;
82811;SDS011;72567;55.696;37.960;2024-03-25T06:21:21;2.42;;;1.00;;
82811;SDS011;72567;55.696;37.960;2024-03-25T06:24:23;4.18;;;1.30;;
82811;SDS011;72567;55.696;37.960;2024-03-25T06:27:24;3.63;;;1.30;;
82811;SDS011;72567;55.696;37.960;2024-03-25T06:30:24;2.22;;;1.15;;
82811;SDS011;72567;55.696;37.960;2024-03-25T06:33:44;1.83;;;1.27;;
82811;SDS011;72567;55.696;37.960;2024-03-25T06:37:03;2.08;;;1.13;;
82811;SDS011;72567;55.696;37.960;2024-03-25T06:40:04;3.65;;;1.58;;
82811;SDS011;72567;55.696;37.960;2024-03-25T06:43:06;3.08;;;1.30;;
82811;SDS011;72567;55.696;37.960;2024-03-25T06:46:07;2.42;;;1.48;;
82811;SDS011;72567;55.696;37.960;2024-03-25T06:49:07;3.88;;;1.20;;
82811;SDS011;72567;55.696;37.960;2024-03-25T06:52:09;3.65;;;1.15;;
82811;SDS011;72567;55.696;37.960;2024-03-25T06:55:09;4.07;;;1.30;;
82811;SDS011;72567;55.696;37.960;2024-03-25T06:58:10;5.40;;;1.35;;
82811;SDS011;72567;55.696;37.960;2024-03-25T07:01:11;4.43;;;1.27;;
82811;SDS011;72567;55.696;37.960;2024-03-25T07:04:14;2.60;;;1.38;;
82811;SDS011;72567;55.696;37.960;2024-03-25T07:07:15;2.63;;;1.42;;
82811;SDS011;72567;55.696;37.960;2024-03-25T07:10:15;2.95;;;1.73;;
82811;SDS011;72567;55.696;37.960;2024-03-25T07:13:16;4.03;;;1.30;;
82811;SDS011;72567;55.696;37.960;2024-03-25T07:16:17;2.83;;;1.50;;
82811;SDS011;72567;55.696;37.960;2024-03-25T07:19:18;3.33;;;1.58;;
82811;SDS011;72567;55.696;37.960;2024-03-25T07:22:19;2.90;;;1.42;;
82811;SDS011;72567;55.696;37.960;2024-03-25T07:25:20;2.97;;;1.30;;
82811;SDS011;72567;55.696;37.960;2024-03-25T07:28:20;3.15;;;1.48;;
82811;SDS011;72567;55.696;37.960;2024-03-25T07:31:21;3.13;;;1.50;;
82811;SDS011;72567;55.696;37.960;2024-03-25T07:34:21;3.25;;;1.63;;
82811;SDS011;72567;55.696;37.960;2024-03-25T07:37:22;4.05;;;1.33;;
82811;SDS011;72567;55.696;37.960;2024-03-25T07:40:22;2.03;;;1.15;;
82811;SDS011;72567;55.696;37.960;2024-03-25T07:43:23;4.10;;;1.60;;
82811;SDS011;72567;55.696;37.960;2024-03-25T07:46:24;4.75;;;1.70;;
82811;SDS011;72567;55.696;37.960;2024-03-25T07:49:28;2.28;;;1.25;;
82811;SDS011;72567;55.696;37.960;2024-03-25T07:52:28;3.60;;;1.55;;
82811;SDS011;72567;55.696;37.960;2024-03-25T07:55:29;6.57;;;1.67;;
82811;SDS011;72567;55.696;37.960;2024-03-25T07:58:31;3.63;;;1.52;;
82811;SDS011;72567;55.696;37.960;2024-03-25T08:01:32;4.40;;;1.48;;
82811;SDS011;72567;55.696;37.960;2024-03-25T08:04:32;4.80;;;1.88;;
82811;SDS011;72567;55.696;37.960;2024-03-25T08:07:33;3.75;;;1.80;;
82811;SDS011;72567;55.696;37.960;2024-03-25T08:10:34;4.25;;;1.77;;
82811;SDS011;72567;55.696;37.960;2024-03-25T08:13:34;6.45;;;2.17;;
82811;SDS011;72567;55.696;37.960;2024-03-25T08:16:35;3.40;;;1.67;;
82811;SDS011;72567;55.696;37.960;2024-03-25T08:19:36;4.30;;;1.75;;
82811;SDS011;72567;55.696;37.960;2024-03-25T08:22:36;4.50;;;1.70;;
82811;SDS011;72567;55.696;37.960;2024-03-25T08:25:37;4.32;;;1.90;;
82811;SDS011;72567;55.696;37.960;2024-03-25T08:28:38;4.60;;;2.03;;
82811;SDS011;72567;55.696;37.960;2024-03-25T08:31:38;3.30;;;1.60;;
82811;SDS011;72567;55.696;37.960;2024-03-25T08:34:39;6.63;;;1.60;;
82811;SDS011;72567;55.696;37.960;2024-03-25T08:37:39;3.75;;;1.67;;
82811;SDS011;72567;55.696;37.960;2024-03-25T08:40:40;4.20;;;1.80;;
82811;SDS011;72567;55.696;37.960;2024-03-25T08:43:40;4.72;;;2.15;;
82811;SDS011;72567;55.696;37.960;2024-03-25T08:46:41;2.50;;;1.10;;
82811;SDS011;72567;55.696;37.960;2024-03-25T08:49:42;7.88;;;2.10;;
82811;SDS011;72567;55.696;37.960;2024-03-25T08:52:42;4.72;;;1.58;;
82811;SDS011;72567;55.696;37.960;2024-03-25T08:55:46;3.58;;;1.33;;
82811;SDS011;72567;55.696;37.960;2024-03-25T08:58:47;3.00;;;1.55;;
82811;SDS011;72567;55.696;37.960;2024-03-25T09:01:47;7.28;;;1.95;;
82811;SDS011;72567;55.696;37.960;2024-03-25T09:04:48;4.00;;;1.77;;
82811;SDS011;72567;55.696;37.960;2024-03-25T09:07:51;5.85;;;2.15;;
82811;SDS011;72567;55.696;37.960;2024-03-25T09:10:52;4.20;;;1.70;;
82811;SDS011;72567;55.696;37.960;2024-03-25T09:14:07;4.78;;;1.95;;
82811;SDS011;72567;55.696;37.960;2024-03-25T09:17:09;7.72;;;3.63;;
82811;SDS011;72567;55.696;37.960;2024-03-25T09:20:09;3.47;;;1.65;;
82811;SDS011;72567;55.696;37.960;2024-03-25T09:23:16;5.13;;;2.83;;
82811;SDS011;72567;55.696;37.960;2024-03-25T09:26:17;4.35;;;2.30;;
82811;SDS011;72567;55.696;37.960;2024-03-25T09:29:18;3.55;;;1.80;;
82811;SDS011;72567;55.696;37.960;2024-03-25T09:32:18;3.72;;;1.70;;
82811;SDS011;72567;55.696;37.960;2024-03-25T09:35:20;5.32;;;2.00;;
82811;SDS011;72567;55.696;37.960;2024-03-25T09:38:21;3.97;;;1.40;;
82811;SDS011;72567;55.696;37.960;2024-03-25T09:41:22;6.43;;;1.67;;
82811;SDS011;72567;55.696;37.960;2024-03-25T09:44:24;4.78;;;2.22;;
82811;SDS011;72567;55.696;37.960;2024-03-25T09:47:25;4.53;;;2.17;;
82811;SDS011;72567;55.696;37.960;2024-03-25T09:50:26;4.88;;;2.00;;
82811;SDS011;72567;55.696;37.960;2024-03-25T09:53:27;6.57;;;2.05;;
82811;SDS011;72567;55.696;37.960;2024-03-25T09:56:27;6.07;;;1.90;;
82811;SDS011;72567;55.696;37.960;2024-03-25T09:59:28;3.83;;;1.88;;
82811;SDS011;72567;55.696;37.960;2024-03-25T10:02:29;4.15;;;2.05;;
82811;SDS011;72567;55.696;37.960;2024-03-25T10:05:29;5.90;;;1.85;;
82811;SDS011;72567;55.696;37.960;2024-03-25T10:08:30;3.70;;;1.60;;
82811;SDS011;72567;55.696;37.960;2024-03-25T10:11:32;4.15;;;2.00;;
82811;SDS011;72567;55.696;37.960;2024-03-25T10:14:35;4.20;;;1.95;;
82811;SDS011;72567;55.696;37.960;2024-03-25T10:17:38;7.20;;;2.10;;
82811;SDS011;72567;55.696;37.960;2024-03-25T10:20:47;4.82;;;1.90;;
82811;SDS011;72567;55.696;37.960;2024-03-25T10:23:50;5.40;;;1.67;;
82811;SDS011;72567;55.696;37.960;2024-03-25T10:26:53;3.60;;;1.73;;
82811;SDS011;72567;55.696;37.960;2024-03-25T10:29:57;3.83;;;2.03;;
82811;SDS011;72567;55.696;37.960;2024-03-25T10:36:02;5.45;;;2.33;;
82811;SDS011;72567;55.696;37.960;2024-03-25T10:39:04;5.57;;;2.22;;
82811;SDS011;72567;55.696;37.960;2024-03-25T10:42:07;7.50;;;2.20;;
82811;SDS011;72567;55.696;37.960;2024-03-25T10:45:11;6.97;;;2.40;;
82811;SDS011;72567;55.696;37.960;2024-03-25T10:51:16;6.38;;;2.85;;
82811;SDS011;72567;55.696;37.960;2024-03-25T10:54:17;5.93;;;2.50;;
82811;SDS011;72567;55.696;37.960;2024-03-25T10:57:18;6.90;;;2.28;;
82811;SDS011;72567;55.696;37.960;2024-03-25T11:00:19;6.80;;;2.55;;
82811;SDS011;72567;55.696;37.960;2024-03-25T11:03:25;7.45;;;2.30;;
82811;SDS011;72567;55.696;37.960;2024-03-25T11:06:26;3.70;;;2.20;;
82811;SDS011;72567;55.696;37.960;2024-03-25T11:09:27;4.70;;;2.53;;
82811;SDS011;72567;55.696;37.960;2024-03-25T11:12:31;8.98;;;2.58;;
82811;SDS011;72567;55.696;37.960;2024-03-25T11:15:36;7.20;;;2.95;;
82811;SDS011;72567;55.696;37.960;2024-03-25T11:18:38;6.25;;;2.10;;
82811;SDS011;72567;55.696;37.960;2024-03-25T11:21:39;7.68;;;2.78;;
82811;SDS011;72567;55.696;37.960;2024-03-25T11:24:43;5.72;;;2.35;;
82811;SDS011;72567;55.696;37.960;2024-03-25T11:27:44;7.55;;;2.95;;
82811;SDS011;72567;55.696;37.960;2024-03-25T11:30:45;6.05;;;2.58;;
82811;SDS011;72567;55.696;37.960;2024-03-25T11:33:45;6.07;;;2.03;;
82811;SDS011;72567;55.696;37.960;2024-03-25T11:36:46;5.15;;;1.88;;
82811;SDS011;72567;55.696;37.960;2024-03-25T11:39:49;5.22;;;2.40;;
82811;SDS011;72567;55.696;37.960;2024-03-25T11:42:49;8.73;;;3.50;;
82811;SDS011;72567;55.696;37.960;2024-03-25T11:45:50;3.72;;;2.10;;
82811;SDS011;72567;55.696;37.960;2024-03-25T11:48:51;5.82;;;2.60;;
82811;SDS011;72567;55.696;37.960;2024-03-25T11:51:53;6.63;;;2.35;;
82811;SDS011;72567;55.696;37.960;2024-03-25T11:54:53;5.25;;;2.45;;
82811;SDS011;72567;55.696;37.960;2024-03-25T11:57:55;5.88;;;2.10;;
82811;SDS011;72567;55.696;37.960;2024-03-25T12:00:56;6.05;;;2.20;;
82811;SDS011;72567;55.696;37.960;2024-03-25T12:03:57;5.80;;;2.08;;
82811;SDS011;72567;55.696;37.960;2024-03-25T12:06:57;8.10;;;3.20;;
82811;SDS011;72567;55.696;37.960;2024-03-25T12:09:59;4.05;;;2.22;;
82811;SDS011;72567;55.696;37.960;2024-03-25T12:13:19;7.43;;;2.35;;
82811;SDS011;72567;55.696;37.960;2024-03-25T12:16:20;4.20;;;2.15;;
82811;SDS011;72567;55.696;37.960;2024-03-25T12:19:21;8.00;;;2.95;;
82811;SDS011;72567;55.696;37.960;2024-03-25T12:22:25;4.53;;;2.33;;
82811;SDS011;72567;55.696;37.960;2024-03-25T12:25:26;9.05;;;2.30;;
82811;SDS011;72567;55.696;37.960;2024-03-25T12:28:27;5.97;;;2.42;;
82811;SDS011;72567;55.696;37.960;2024-03-25T12:31:27;6.40;;;2.30;;
82811;SDS011;72567;55.696;37.960;2024-03-25T12:34:28;5.95;;;2.58;;
82811;SDS011;72567;55.696;37.960;2024-03-25T12:37:29;5.35;;;2.33;;
82811;SDS011;72567;55.696;37.960;2024-03-25T12:40:31;8.90;;;2.08;;
82811;SDS011;72567;55.696;37.960;2024-03-25T12:43:32;5.50;;;2.40;;
82811;SDS011;72567;55.696;37.960;2024-03-25T12:46:33;4.65;;;2.33;;
82811;SDS011;72567;55.696;37.960;2024-03-25T12:49:33;7.75;;;2.40;;
82811;SDS011;72567;55.696;37.960;2024-03-25T12:52:34;6.40;;;2.47;;
82811;SDS011;72567;55.696;37.960;2024-03-25T12:55:34;4.88;;;1.70;;
82811;SDS011;72567;55.696;37.960;2024-03-25T12:58:35;5.43;;;2.08;;
82811;SDS011;72567;55.696;37.960;2024-03-25T13:01:36;5.28;;;2.35;;
82811;SDS011;72567;55.696;37.960;2024-03-25T13:04:36;5.90;;;2.10;;
82811;SDS011;72567;55.696;37.960;2024-03-25T13:07:41;6.13;;;2.08;;
82811;SDS011;72567;55.696;37.960;2024-03-25T13:10:42;6.75;;;2.55;;
82811;SDS011;72567;55.696;37.960;2024-03-25T13:13:43;5.20;;;2.42;;
82811;SDS011;72567;55.696;37.960;2024-03-25T13:16:43;5.78;;;2.30;;
82811;SDS011;72567;55.696;37.960;2024-03-25T13:19:46;6.32;;;2.90;;
82811;SDS011;72567;55.696;37.960;2024-03-25T13:22:48;5.93;;;2.10;;
82811;SDS011;72567;55.696;37.960;2024-03-25T13:25:49;4.88;;;2.33;;
82811;SDS011;72567;55.696;37.960;2024-03-25T13:28:50;6.82;;;2.42;;
82811;SDS011;72567;55.696;37.960;2024-03-25T13:31:51;5.45;;;2.65;;
82811;SDS011;72567;55.696;37.960;2024-03-25T13:34:51;6.28;;;2.63;;
82811;SDS011;72567;55.696;37.960;2024-03-25T13:37:52;8.65;;;2.63;;
82811;SDS011;72567;55.696;37.960;2024-03-25T13:40:56;6.28;;;3.03;;
82811;SDS011;72567;55.696;37.960;2024-03-25T13:43:57;7.47;;;3.03;;
82811;SDS011;72567;55.696;37.960;2024-03-25T13:46:57;8.35;;;2.63;;
82811;SDS011;72567;55.696;37.960;2024-03-25T13:50:04;6.88;;;2.63;;
82811;SDS011;72567;55.696;37.960;2024-03-25T13:53:08;6.07;;;2.70;;
82811;SDS011;72567;55.696;37.960;2024-03-25T13:56:09;7.97;;;2.72;;
82811;SDS011;72567;55.696;37.960;2024-03-25T13:59:10;5.95;;;2.95;;
82811;SDS011;72567;55.696;37.960;2024-03-25T14:02:10;7.32;;;2.22;;
82811;SDS011;72567;55.696;37.960;2024-03-25T14:05:11;3.97;;;2.25;;
82811;SDS011;72567;55.696;37.960;2024-03-25T14:08:11;5.75;;;2.45;;
82811;SDS011;72567;55.696;37.960;2024-03-25T14:11:12;11.35;;;2.67;;
82811;SDS011;72567;55.696;37.960;2024-03-25T14:14:13;10.95;;;3.13;;
82811;SDS011;72567;55.696;37.960;2024-03-25T14:17:13;8.45;;;3.05;;
82811;SDS011;72567;55.696;37.960;2024-03-25T14:20:15;13.02;;;2.70;;
82811;SDS011;72567;55.696;37.960;2024-03-25T14:23:15;7.85;;;2.90;;
82811;SDS011;72567;55.696;37.960;2024-03-25T14:26:16;8.63;;;2.88;;
82811;SDS011;72567;55.696;37.960;2024-03-25T14:29:17;10.35;;;3.60;;
82811;SDS011;72567;55.696;37.960;2024-03-25T14:32:20;4.25;;;2.47;;
82811;SDS011;72567;55.696;37.960;2024-03-25T14:35:24;7.43;;;2.65;;
82811;SDS011;72567;55.696;37.960;2024-03-25T14:38:25;6.90;;;3.20;;
82811;SDS011;72567;55.696;37.960;2024-03-25T14:41:26;7.38;;;3.00;;
82811;SDS011;72567;55.696;37.960;2024-03-25T14:44:26;9.48;;;3.15;;
82811;SDS011;72567;55.696;37.960;2024-03-25T14:47:27;13.93;;;3.00;;
82811;SDS011;72567;55.696;37.960;2024-03-25T14:50:28;10.45;;;3.20;;
82811;SDS011;72567;55.696;37.960;2024-03-25T14:53:28;11.23;;;3.40;;
82811;SDS011;72567;55.696;37.960;2024-03-25T14:56:29;14.38;;;3.58;;
82811;SDS011;72567;55.696;37.960;2024-03-25T14:59:33;10.35;;;2.78;;
82811;SDS011;72567;55.696;37.960;2024-03-25T15:02:33;6.03;;;2.80;;
82811;SDS011;72567;55.696;37.960;2024-03-25T15:05:34;11.95;;;2.85;;
82811;SDS011;72567;55.696;37.960;2024-03-25T15:08:35;11.32;;;3.05;;
82811;SDS011;72567;55.696;37.960;2024-03-25T15:11:37;6.97;;;2.35;;
82811;SDS011;72567;55.696;37.960;2024-03-25T15:14:38;6.85;;;3.15;;
82811;SDS011;72567;55.696;37.960;2024-03-25T15:17:38;9.85;;;3.45;;
82811;SDS011;72567;55.696;37.960;2024-03-25T15:20:39;8.30;;;3.33;;
82811;SDS011;72567;55.696;37.960;2024-03-25T15:23:39;7.18;;;3.13;;
82811;SDS011;72567;55.696;37.960;2024-03-25T15:26:40;10.52;;;3.60;;
82811;SDS011;72567;55.696;37.960;2024-03-25T15:29:41;9.35;;;3.08;;
82811;SDS011;72567;55.696;37.960;2024-03-25T15:32:41;8.13;;;4.15;;
82811;SDS011;72567;55.696;37.960;2024-03-25T15:35:42;12.88;;;3.80;;
82811;SDS011;72567;55.696;37.960;2024-03-25T15:38:42;12.20;;;4.68;;
82811;SDS011;72567;55.696;37.960;2024-03-25T15:41:43;16.65;;;4.68;;
82811;SDS011;72567;55.696;37.960;2024-03-25T15:44:44;12.32;;;4.35;;
82811;SDS011;72567;55.696;37.960;2024-03-25T15:47:44;16.30;;;4.55;;
82811;SDS011;72567;55.696;37.960;2024-03-25T15:50:45;12.93;;;4.90;;
82811;SDS011;72567;55.696;37.960;2024-03-25T15:53:46;9.93;;;4.43;;
82811;SDS011;72567;55.696;37.960;2024-03-25T15:56:46;10.80;;;4.47;;
82811;SDS011;72567;55.696;37.960;2024-03-25T15:59:47;10.88;;;3.92;;
82811;SDS011;72567;55.696;37.960;2024-03-25T16:02:47;8.35;;;4.20;;
82811;SDS011;72567;55.696;37.960;2024-03-25T16:05:50;11.15;;;4.32;;
82811;SDS011;72567;55.696;37.960;2024-03-25T16:08:51;13.68;;;4.28;;
82811;SDS011;72567;55.696;37.960;2024-03-25T16:11:52;8.93;;;4.07;;
82811;SDS011;72567;55.696;37.960;2024-03-25T16:14:52;11.73;;;4.10;;
82811;SDS011;72567;55.696;37.960;2024-03-25T16:17:54;10.15;;;3.95;;
82811;SDS011;72567;55.696;37.960;2024-03-25T16:20:55;13.10;;;4.13;;
82811;SDS011;72567;55.696;37.960;2024-03-25T16:23:55;12.82;;;4.32;;
82811;SDS011;72567;55.696;37.960;2024-03-25T16:26:56;12.82;;;5.50;;
82811;SDS011;72567;55.696;37.960;2024-03-25T16:29:57;14.05;;;6.22;;
82811;SDS011;72567;55.696;37.960;2024-03-25T16:32:58;13.73;;;8.32;;
82811;SDS011;72567;55.696;37.960;2024-03-25T16:35:58;17.90;;;8.60;;
82811;SDS011;72567;55.696;37.960;2024-03-25T16:38:59;15.25;;;7.97;;
82811;SDS011;72567;55.696;37.960;2024-03-25T16:42:00;16.23;;;8.60;;
82811;SDS011;72567;55.696;37.960;2024-03-25T16:45:00;15.65;;;7.93;;
82811;SDS011;72567;55.696;37.960;2024-03-25T16:48:01;28.95;;;13.27;;
82811;SDS011;72567;55.696;37.960;2024-03-25T16:51:02;71.05;;;43.08;;
82811;SDS011;72567;55.696;37.960;2024-03-25T16:54:03;54.00;;;34.63;;
82811;SDS011;72567;55.696;37.960;2024-03-25T16:57:03;42.03;;;26.40;;
82811;SDS011;72567;55.696;37.960;2024-03-25T17:00:05;31.20;;;17.27;;
82811;SDS011;72567;55.696;37.960;2024-03-25T17:03:08;39.33;;;22.00;;
82811;SDS011;72567;55.696;37.960;2024-03-25T17:06:08;37.55;;;20.20;;
82811;SDS011;72567;55.696;37.960;2024-03-25T17:09:10;39.20;;;20.23;;
82811;SDS011;72567;55.696;37.960;2024-03-25T17:12:11;22.67;;;13.35;;
82811;SDS011;72567;55.696;37.960;2024-03-25T17:15:11;21.80;;;10.93;;
82811;SDS011;72567;55.696;37.960;2024-03-25T17:18:12;25.45;;;12.40;;
82811;SDS011;72567;55.696;37.960;2024-03-25T17:21:16;25.80;;;12.93;;
82811;SDS011;72567;55.696;37.960;2024-03-25T17:24:16;24.45;;;11.07;;
82811;SDS011;72567;55.696;37.960;2024-03-25T17:27:17;23.63;;;13.02;;
82811;SDS011;72567;55.696;37.960;2024-03-25T17:30:18;20.92;;;9.95;;
82811;SDS011;72567;55.696;37.960;2024-03-25T17:33:19;18.83;;;7.97;;
82811;SDS011;72567;55.696;37.960;2024-03-25T17:36:20;13.50;;;5.78;;
82811;SDS011;72567;55.696;37.960;2024-03-25T17:39:21;13.95;;;7.07;;
82811;SDS011;72567;55.696;37.960;2024-03-25T17:42:21;14.45;;;6.75;;
82811;SDS011;72567;55.696;37.960;2024-03-25T17:45:22;14.13;;;7.50;;
82811;SDS011;72567;55.696;37.960;2024-03-25T17:48:23;19.52;;;8.55;;
82811;SDS011;72567;55.696;37.960;2024-03-25T17:51:24;22.27;;;11.18;;
82811;SDS011;72567;55.696;37.960;2024-03-25T17:54:26;22.73;;;10.57;;
82811;SDS011;72567;55.696;37.960;2024-03-25T17:57:27;21.65;;;9.65;;